createdAt,value
2018-03-25T00:02:50.650Z,91.50
2018-03-25T00:05:54.813Z,91.20
2018-03-25T00:09:03.143Z,91.20
2018-03-25T00:12:07.169Z,91.30
2018-03-25T00:15:12.440Z,91.70
2018-03-25T00:18:17.255Z,91.60
2018-03-25T00:21:21.890Z,91.40
2018-03-25T00:24:26.891Z,91.30
2018-03-25T00:27:30.486Z,91.30
2018-03-25T00:30:35.251Z,91.90
2018-03-25T00:33:41.461Z,91.60
2018-03-25T00:36:46.913Z,91.80
2018-03-25T00:39:54.839Z,91.70
2018-03-25T00:43:31.611Z,91.40
2018-03-25T00:46:40.242Z,91.60
2018-03-25T00:49:46.963Z,92.10
2018-03-25T00:52:54.631Z,91.80
2018-03-25T00:56:01.624Z,91.60
2018-03-25T00:59:07.548Z,91.50
2018-03-25T01:02:16.112Z,91.70
2018-03-25T01:05:29.072Z,91.60
2018-03-25T01:08:38.341Z,91.70
2018-03-25T01:11:47.292Z,91.70
2018-03-25T01:18:12.373Z,91.70
2018-03-25T01:21:22.332Z,91.60
2018-03-25T01:24:33.269Z,91.70
2018-03-25T01:27:49.552Z,91.90
2018-03-25T01:35:05.060Z,92.30
2018-03-25T01:38:11.737Z,92.00
2018-03-25T01:41:41.600Z,91.80
2018-03-25T01:48:16.254Z,91.50
2018-03-25T01:52:35.149Z,91.70
2018-03-25T01:56:03.413Z,91.80
2018-03-25T01:59:12.851Z,92.10
2018-03-25T02:02:25.137Z,91.90
2018-03-25T02:10:57.903Z,91.90
2018-03-25T02:14:06.962Z,91.90
2018-03-25T02:20:37.838Z,92.00
2018-03-25T02:23:49.162Z,92.10
2018-03-25T02:27:03.916Z,92.10
2018-03-25T02:30:28.892Z,92.10
2018-03-25T02:33:53.745Z,92.40
2018-03-25T02:40:53.896Z,92.30
2018-03-25T02:44:01.252Z,92.40
2018-03-25T02:50:25.693Z,92.20
2018-03-25T02:53:41.392Z,91.90
2018-03-25T02:56:49.188Z,92.20
2018-03-25T02:59:56.910Z,91.90
2018-03-25T03:03:03.023Z,91.80
2018-03-25T03:06:12.605Z,91.80
2018-03-25T03:09:23.784Z,91.90
2018-03-25T03:12:29.301Z,92.40
2018-03-25T03:15:35.068Z,92.40
2018-03-25T03:18:46.373Z,92.10
2018-03-25T03:21:54.820Z,92.00
2018-03-25T03:24:58.624Z,91.50
2018-03-25T03:28:03.640Z,91.90
2018-03-25T03:31:11.123Z,91.80
2018-03-25T03:34:17.922Z,91.90
2018-03-25T03:37:21.602Z,92.10
2018-03-25T03:40:25.643Z,92.10
2018-03-25T03:43:30.342Z,92.00
2018-03-25T03:46:37.890Z,92.10
2018-03-25T03:49:41.753Z,92.00
2018-03-25T03:52:46.182Z,91.80
2018-03-25T03:55:52.053Z,92.50
2018-03-25T03:58:55.697Z,92.20
2018-03-25T04:02:01.649Z,92.40
2018-03-25T04:05:06.717Z,92.10
2018-03-25T04:08:12.366Z,91.80
2018-03-25T04:11:17.254Z,91.90
2018-03-25T04:14:21.514Z,92.10
2018-03-25T04:17:26.403Z,91.90
2018-03-25T04:20:34.339Z,92.10
2018-03-25T04:23:38.145Z,91.70
2018-03-25T04:26:41.811Z,92.00
2018-03-25T04:29:46.616Z,92.00
2018-03-25T04:32:51.473Z,92.00
2018-03-25T04:35:56.277Z,92.10
2018-03-25T04:38:59.990Z,92.00
2018-03-25T04:42:04.083Z,92.00
2018-03-25T04:45:07.624Z,92.20
2018-03-25T04:48:11.129Z,92.20
2018-03-25T04:51:14.712Z,92.10
2018-03-25T04:54:18.418Z,92.10
2018-03-25T04:57:23.175Z,92.10
2018-03-25T05:00:26.773Z,92.20
2018-03-25T05:03:30.288Z,92.20
2018-03-25T05:06:34.180Z,92.20
2018-03-25T05:09:38.292Z,92.30
2018-03-25T05:12:42.939Z,91.90
2018-03-25T05:15:46.540Z,92.00
2018-03-25T05:18:50.446Z,91.90
2018-03-25T05:21:54.024Z,92.00
2018-03-25T05:24:58.398Z,92.20
2018-03-25T05:28:02.804Z,92.00
2018-03-25T05:31:07.522Z,92.20
2018-03-25T05:34:11.227Z,92.00
2018-03-25T05:37:15.448Z,92.00
2018-03-25T05:40:19.974Z,91.80
2018-03-25T05:43:23.565Z,91.90
2018-03-25T05:46:27.161Z,91.70
2018-03-25T05:49:30.766Z,91.40
2018-03-25T05:52:34.805Z,91.50
2018-03-25T05:55:39.436Z,91.00
2018-03-25T05:58:43.075Z,90.80
2018-03-25T06:01:47.520Z,91.30
2018-03-25T06:04:51.882Z,90.70
2018-03-25T06:07:55.925Z,90.50
2018-03-25T06:10:59.478Z,90.40
2018-03-25T06:14:04.215Z,90.20
2018-03-25T06:17:09.855Z,90.20
2018-03-25T06:20:14.615Z,88.70
2018-03-25T06:23:19.207Z,88.10
2018-03-25T06:26:23.290Z,86.80
2018-03-25T06:29:27.743Z,82.70
2018-03-25T06:32:41.650Z,81.90
2018-03-25T06:35:45.601Z,80.40
2018-03-25T06:38:50.300Z,78.40
2018-03-25T06:41:55.063Z,76.60
2018-03-25T06:44:59.298Z,74.30
2018-03-25T06:48:04.840Z,73.60
2018-03-25T06:51:10.569Z,68.70
2018-03-25T06:54:14.890Z,67.10
2018-03-25T06:57:20.427Z,65.00
2018-03-25T07:00:24.237Z,62.20
2018-03-25T07:03:28.971Z,64.30
2018-03-25T07:06:33.584Z,63.60
2018-03-25T07:09:38.644Z,62.40
2018-03-25T07:12:46.581Z,58.40
2018-03-25T07:15:53.018Z,57.90
2018-03-25T07:19:00.390Z,57.50
2018-03-25T07:22:07.532Z,57.90
2018-03-25T07:25:11.198Z,57.60
2018-03-25T07:28:14.894Z,54.90
2018-03-25T07:31:28.336Z,52.10
2018-03-25T07:34:32.051Z,51.80
2018-03-25T07:37:36.958Z,52.70
2018-03-25T07:40:41.482Z,51.30
2018-03-25T07:43:45.013Z,50.70
2018-03-25T07:46:50.652Z,49.90
2018-03-25T07:49:55.427Z,49.50
2018-03-25T07:53:00.023Z,47.90
2018-03-25T07:56:04.874Z,47.70
2018-03-25T07:59:08.462Z,47.60
2018-03-25T08:02:13.398Z,48.40
2018-03-25T08:05:17.072Z,45.50
2018-03-25T08:08:20.602Z,43.60
2018-03-25T08:11:24.608Z,44.30
2018-03-25T08:14:31.003Z,42.50
2018-03-25T08:17:37.545Z,41.50
2018-03-25T08:20:41.369Z,41.50
2018-03-25T08:23:45.179Z,43.10
2018-03-25T08:26:48.829Z,40.50
2018-03-25T08:29:52.487Z,39.90
2018-03-25T08:32:55.968Z,43.70
2018-03-25T08:36:00.285Z,44.00
2018-03-25T08:39:03.917Z,43.60
2018-03-25T08:42:08.396Z,46.40
2018-03-25T08:45:12.000Z,46.30
2018-03-25T08:48:15.953Z,43.20
2018-03-25T08:51:19.620Z,43.40
2018-03-25T08:54:23.290Z,43.30
2018-03-25T08:57:27.525Z,44.60
2018-03-25T09:00:32.111Z,45.20
2018-03-25T09:06:44.707Z,44.60
2018-03-25T09:09:48.265Z,41.50
2018-03-25T09:12:51.921Z,44.00
2018-03-25T09:19:05.552Z,44.10
2018-03-25T09:22:10.889Z,45.00
2018-03-25T09:28:28.343Z,42.10
2018-03-25T09:31:32.010Z,41.90
2018-03-25T09:34:35.651Z,40.20
2018-03-25T09:37:39.736Z,41.20
2018-03-25T09:40:44.069Z,41.90
2018-03-25T09:43:49.034Z,41.50
2018-03-25T09:46:52.618Z,42.20
2018-03-25T09:49:56.294Z,39.30
2018-03-25T09:53:00.757Z,39.10
2018-03-25T09:56:04.690Z,40.30
2018-03-25T09:59:08.164Z,39.20
2018-03-25T10:02:12.574Z,36.80
2018-03-25T10:05:16.806Z,37.00
2018-03-25T10:08:20.531Z,35.80
2018-03-25T10:14:39.503Z,37.50
2018-03-25T10:17:43.069Z,36.80
2018-03-25T10:20:46.836Z,35.50
2018-03-25T10:23:51.490Z,35.90
2018-03-25T10:26:56.780Z,34.00
2018-03-25T10:30:00.513Z,33.80
2018-03-25T10:33:05.499Z,34.60
2018-03-25T10:36:10.642Z,34.30
2018-03-25T10:39:14.380Z,32.20
2018-03-25T10:42:17.953Z,35.20
2018-03-25T10:45:22.028Z,37.90
2018-03-25T10:48:26.352Z,36.50
2018-03-25T10:51:30.832Z,34.10
2018-03-25T10:54:34.634Z,33.70
2018-03-25T10:57:39.482Z,34.80
2018-03-25T11:00:43.273Z,34.50
2018-03-25T11:03:46.805Z,33.80
2018-03-25T11:06:50.472Z,34.80
2018-03-25T11:09:54.525Z,36.10
2018-03-25T11:12:58.085Z,37.60
2018-03-25T11:16:01.651Z,37.60
2018-03-25T11:19:05.311Z,37.20
2018-03-25T11:22:08.883Z,38.20
2018-03-25T11:25:12.605Z,37.80
2018-03-25T11:28:16.795Z,37.90
2018-03-25T11:31:21.257Z,38.70
2018-03-25T11:34:24.984Z,38.90
2018-03-25T11:37:28.619Z,36.40
2018-03-25T11:40:32.066Z,36.00
2018-03-25T11:43:35.478Z,38.60
2018-03-25T11:46:39.295Z,38.50
2018-03-25T11:49:43.592Z,40.20
2018-03-25T11:52:47.032Z,39.60
2018-03-25T11:55:50.437Z,42.30
2018-03-25T11:58:54.198Z,42.50
2018-03-25T12:01:58.394Z,41.80
2018-03-25T12:05:02.621Z,41.00
2018-03-25T12:08:06.830Z,42.10
2018-03-25T12:11:11.102Z,43.60
2018-03-25T12:14:14.653Z,43.30
2018-03-25T12:17:18.121Z,43.20
2018-03-25T12:20:21.562Z,41.30
2018-03-25T12:23:25.054Z,41.00
2018-03-25T12:26:29.207Z,44.00
2018-03-25T12:29:32.605Z,43.00
2018-03-25T12:32:35.982Z,43.20
2018-03-25T12:35:40.019Z,42.10
2018-03-25T12:38:43.443Z,43.00
2018-03-25T12:41:46.850Z,42.70
2018-03-25T12:44:50.349Z,43.60
2018-03-25T12:47:53.987Z,43.00
2018-03-25T12:50:58.118Z,42.70
2018-03-25T12:54:01.525Z,42.40
2018-03-25T12:57:04.962Z,44.10
2018-03-25T13:00:08.662Z,43.80
2018-03-25T13:03:12.072Z,42.20
2018-03-25T13:06:15.444Z,41.90
2018-03-25T13:09:18.860Z,41.70
2018-03-25T13:12:22.256Z,42.50
2018-03-25T13:15:25.594Z,43.10
2018-03-25T13:18:28.957Z,43.10
2018-03-25T13:21:33.017Z,43.40
2018-03-25T13:24:36.373Z,43.20
2018-03-25T13:27:40.548Z,42.10
2018-03-25T13:30:44.674Z,44.50
2018-03-25T13:33:48.759Z,45.00
2018-03-25T13:36:52.548Z,45.00
2018-03-25T13:39:55.830Z,44.10
2018-03-25T13:42:59.180Z,43.60
2018-03-25T13:46:02.540Z,43.00
2018-03-25T13:49:05.876Z,43.70
2018-03-25T13:52:10.060Z,45.50
2018-03-25T13:55:13.389Z,45.40
2018-03-25T13:58:16.700Z,45.10
2018-03-25T14:01:20.319Z,45.50
2018-03-25T14:04:24.567Z,46.10
2018-03-25T14:07:27.971Z,46.00
2018-03-25T14:10:31.300Z,45.60
2018-03-25T14:13:35.596Z,46.10
2018-03-25T14:16:39.078Z,45.80
2018-03-25T14:19:43.278Z,45.80
2018-03-25T14:22:46.644Z,46.10
2018-03-25T14:25:51.158Z,46.80
2018-03-25T14:28:54.575Z,46.70
2018-03-25T14:31:59.455Z,46.60
2018-03-25T14:35:02.774Z,46.50
2018-03-25T14:38:10.344Z,47.00
2018-03-25T14:41:13.770Z,46.00
2018-03-25T14:44:17.103Z,45.90
2018-03-25T14:47:20.447Z,45.10
2018-03-25T14:50:23.860Z,46.10
2018-03-25T14:53:27.271Z,44.70
2018-03-25T14:56:30.704Z,44.90
2018-03-25T14:59:34.869Z,44.50
2018-03-25T15:02:38.785Z,44.30
2018-03-25T15:05:42.102Z,42.40
2018-03-25T15:08:45.521Z,42.10
2018-03-25T15:11:49.607Z,42.80
2018-03-25T15:14:52.986Z,42.60
2018-03-25T15:17:56.441Z,40.70
2018-03-25T15:21:00.568Z,41.10
2018-03-25T15:24:04.809Z,40.90
2018-03-25T15:27:08.536Z,40.70
2018-03-25T15:30:12.023Z,39.90
2018-03-25T15:33:15.732Z,39.30
2018-03-25T15:36:19.155Z,39.60
2018-03-25T15:39:22.491Z,44.30
2018-03-25T15:42:25.882Z,45.60
2018-03-25T15:45:29.270Z,45.40
2018-03-25T15:48:33.385Z,46.60
2018-03-25T15:51:36.745Z,46.50
2018-03-25T15:54:40.305Z,46.30
2018-03-25T15:57:43.691Z,47.20
2018-03-25T16:00:47.022Z,47.80
2018-03-25T16:03:51.436Z,48.50
2018-03-25T16:06:54.731Z,48.50
2018-03-25T16:09:58.997Z,48.80
2018-03-25T16:13:02.396Z,48.80
2018-03-25T16:16:06.184Z,48.30
2018-03-25T16:19:09.488Z,48.80
2018-03-25T16:22:12.936Z,49.50
2018-03-25T16:25:17.069Z,49.80
2018-03-25T16:28:20.779Z,49.70
2018-03-25T16:31:24.325Z,50.30
2018-03-25T16:34:27.742Z,50.50
2018-03-25T16:37:31.153Z,51.50
2018-03-25T16:40:34.478Z,51.70
2018-03-25T16:43:37.985Z,50.90
2018-03-25T16:46:41.811Z,50.80
2018-03-25T16:49:45.103Z,51.20
2018-03-25T16:52:48.679Z,51.80
2018-03-25T16:55:51.996Z,51.80
2018-03-25T16:58:55.963Z,51.90
2018-03-25T17:02:00.261Z,52.60
2018-03-25T17:05:03.840Z,52.50
2018-03-25T17:08:07.438Z,52.60
2018-03-25T17:11:11.334Z,53.10
2018-03-25T17:14:14.849Z,52.80
2018-03-25T17:17:18.376Z,53.10
2018-03-25T17:20:21.888Z,53.70
2018-03-25T17:23:25.565Z,53.80
2018-03-25T17:29:38.678Z,53.40
2018-03-25T17:32:41.976Z,53.90
2018-03-25T17:35:45.356Z,54.40
2018-03-25T17:38:48.744Z,54.70
2018-03-25T17:41:52.142Z,55.20
2018-03-25T17:44:55.453Z,56.40
2018-03-25T17:47:59.801Z,57.00
2018-03-25T17:51:03.166Z,57.00
2018-03-25T17:54:07.370Z,56.10
2018-03-25T17:57:10.667Z,55.90
2018-03-25T18:00:14.103Z,55.50
2018-03-25T18:03:18.227Z,56.60
2018-03-25T18:06:21.734Z,56.30
2018-03-25T18:09:25.082Z,56.30
2018-03-25T18:12:28.744Z,56.40
2018-03-25T18:15:32.072Z,56.60
2018-03-25T18:18:35.411Z,56.30
2018-03-25T18:21:39.718Z,56.80
2018-03-25T18:24:43.080Z,56.80
2018-03-25T18:27:46.431Z,56.80
2018-03-25T18:30:50.563Z,57.50
2018-03-25T18:33:53.900Z,57.30
2018-03-25T18:36:57.594Z,58.60
2018-03-25T18:40:00.955Z,59.10
2018-03-25T18:43:05.175Z,59.90
2018-03-25T18:46:09.217Z,59.50
2018-03-25T18:49:12.913Z,59.40
2018-03-25T18:52:16.335Z,60.20
2018-03-25T18:55:19.861Z,60.20
2018-03-25T18:58:23.300Z,60.40
2018-03-25T19:01:26.790Z,61.00
2018-03-25T19:04:30.869Z,59.90
2018-03-25T19:07:34.213Z,59.70
2018-03-25T19:10:37.699Z,60.10
2018-03-25T19:13:41.301Z,60.00
2018-03-25T19:16:45.391Z,60.10
2018-03-25T19:19:48.954Z,60.00
2018-03-25T19:22:52.320Z,59.70
2018-03-25T19:25:55.781Z,58.90
2018-03-25T19:28:59.150Z,59.50
2018-03-25T19:32:04.256Z,58.80
2018-03-25T19:35:07.647Z,58.80
2018-03-25T19:38:11.272Z,59.00
2018-03-25T19:41:15.394Z,59.10
2018-03-25T19:44:18.768Z,59.00
2018-03-25T19:47:22.167Z,58.80
2018-03-25T19:50:26.476Z,58.80
2018-03-25T19:53:29.812Z,58.70
2018-03-25T19:56:33.270Z,59.70
2018-03-25T19:59:37.394Z,60.70
2018-03-25T20:02:41.849Z,61.70
2018-03-25T20:05:45.134Z,61.50
2018-03-25T20:08:48.503Z,60.90
2018-03-25T20:11:51.876Z,60.90
2018-03-25T20:14:55.196Z,60.60
2018-03-25T20:17:59.338Z,61.20
2018-03-25T20:21:02.652Z,61.00
2018-03-25T20:24:06.072Z,60.80
2018-03-25T20:27:09.649Z,60.80
2018-03-25T20:30:13.037Z,60.50
2018-03-25T20:33:16.836Z,61.10
2018-03-25T20:36:20.169Z,61.20
2018-03-25T20:39:23.615Z,61.80
2018-03-25T20:42:26.939Z,62.30
2018-03-25T20:45:30.251Z,63.00
2018-03-25T20:48:33.584Z,63.10
2018-03-25T20:51:37.361Z,62.80
2018-03-25T20:54:40.695Z,64.10
2018-03-25T20:57:44.337Z,64.70
2018-03-25T21:00:48.443Z,65.50
2018-03-25T21:03:51.792Z,65.30
2018-03-25T21:06:55.122Z,65.50
2018-03-25T21:09:58.787Z,65.60
2018-03-25T21:13:02.913Z,66.50
2018-03-25T21:16:06.307Z,66.30
2018-03-25T21:19:09.641Z,67.10
2018-03-25T21:22:12.974Z,68.40
2018-03-25T21:25:16.332Z,68.60
2018-03-25T21:28:19.738Z,68.90
2018-03-25T21:31:23.037Z,68.90
2018-03-25T21:34:26.741Z,69.10
2018-03-25T21:37:30.063Z,69.50
2018-03-25T21:40:33.690Z,70.40
2018-03-25T21:43:37.109Z,69.80
2018-03-25T21:46:40.717Z,69.30
2018-03-25T21:49:44.013Z,68.70
2018-03-25T21:52:47.320Z,69.10
2018-03-25T21:55:50.645Z,69.10
2018-03-25T21:58:54.735Z,69.60
2018-03-25T22:01:58.055Z,69.50
2018-03-25T22:05:01.443Z,69.10
2018-03-25T22:08:05.560Z,70.00
2018-03-25T22:11:09.344Z,69.90
2018-03-25T22:14:12.613Z,69.50
2018-03-25T22:17:15.994Z,70.10
2018-03-25T22:20:19.414Z,70.30
2018-03-25T22:23:22.950Z,70.40
2018-03-25T22:26:26.270Z,70.40
2018-03-25T22:29:29.787Z,70.60
2018-03-25T22:32:33.856Z,72.60
2018-03-25T22:35:37.776Z,71.70
2018-03-25T22:38:41.096Z,71.50
2018-03-25T22:41:44.549Z,72.30
2018-03-25T22:44:47.925Z,73.60
2018-03-25T22:47:52.015Z,74.70
2018-03-25T22:50:55.324Z,74.50
2018-03-25T22:53:58.706Z,75.20
2018-03-25T22:57:02.009Z,75.20
2018-03-25T23:00:05.587Z,75.00
2018-03-25T23:03:09.827Z,74.50
2018-03-25T23:06:13.134Z,73.20
2018-03-25T23:09:16.429Z,72.90
2018-03-25T23:12:20.108Z,74.10
2018-03-25T23:15:23.515Z,75.00
2018-03-25T23:18:26.856Z,75.60
2018-03-25T23:21:30.183Z,75.80
2018-03-25T23:24:33.556Z,75.60
2018-03-25T23:27:37.889Z,75.30
2018-03-25T23:30:42.096Z,76.10
2018-03-25T23:33:46.203Z,76.00
2018-03-25T23:36:49.839Z,75.80
2018-03-25T23:39:53.185Z,77.40
2018-03-25T23:42:56.523Z,77.50
2018-03-25T23:46:00.570Z,77.40
2018-03-25T23:49:04.246Z,77.30
2018-03-25T23:52:07.606Z,79.10
2018-03-25T23:55:10.964Z,79.30
2018-03-25T23:58:14.299Z,79.20
